sensor_id;sensor_type;location;lat;lon;timestamp;temperature;humidity
69009;SHT31;56065;52.472;13.380;2024-03-02T00:01:48;10.43;88.18
69009;SHT31;56065;52.472;13.380;2024-03-02T00:04:14;10.45;88.21
69009;SHT31;56065;52.472;13.380;2024-03-02T00:06:39;10.43;88.26
69009;SHT31;56065;52.472;13.380;2024-03-02T00:09:04;10.45;88.33
69009;SHT31;56065;52.472;13.380;2024-03-02T00:11:30;10.50;88.24
69009;SHT31;56065;52.472;13.380;2024-03-02T00:13:55;10.40;88.29
69009;SHT31;56065;52.472;13.380;2024-03-02T00:16:20;10.43;88.38
69009;SHT31;56065;52.472;13.380;2024-03-02T00:18:46;10.43;88.27
69009;SHT31;56065;52.472;13.380;2024-03-02T00:21:11;10.45;88.30
69009;SHT31;56065;52.472;13.380;2024-03-02T00:23:38;10.50;88.47
69009;SHT31;56065;52.472;13.380;2024-03-02T00:26:04;10.51;88.49
69009;SHT31;56065;52.472;13.380;2024-03-02T00:28:33;10.54;88.38
69009;SHT31;56065;52.472;13.380;2024-03-02T00:33:34;10.58;88.21
69009;SHT31;56065;52.472;13.380;2024-03-02T00:36:02;10.60;88.25
69009;SHT31;56065;52.472;13.380;2024-03-02T00:38:29;10.63;88.20
69009;SHT31;56065;52.472;13.380;2024-03-02T00:40:54;10.60;88.32
69009;SHT31;56065;52.472;13.380;2024-03-02T00:43:42;10.58;88.31
69009;SHT31;56065;52.472;13.380;2024-03-02T00:46:12;10.58;88.28
69009;SHT31;56065;52.472;13.380;2024-03-02T00:48:41;10.61;88.23
69009;SHT31;56065;52.472;13.380;2024-03-02T00:51:09;10.60;88.09
69009;SHT31;56065;52.472;13.380;2024-03-02T00:53:34;10.61;88.23
69009;SHT31;56065;52.472;13.380;2024-03-02T00:56:01;10.64;88.29
69009;SHT31;56065;52.472;13.380;2024-03-02T00:58:26;10.68;88.25
69009;SHT31;56065;52.472;13.380;2024-03-02T01:00:52;10.68;88.29
69009;SHT31;56065;52.472;13.380;2024-03-02T01:03:17;10.68;88.39
69009;SHT31;56065;52.472;13.380;2024-03-02T01:05:44;10.71;88.29
69009;SHT31;56065;52.472;13.380;2024-03-02T01:08:10;10.78;88.26
69009;SHT31;56065;52.472;13.380;2024-03-02T01:10:35;10.82;88.26
69009;SHT31;56065;52.472;13.380;2024-03-02T01:13:01;10.84;88.17
69009;SHT31;56065;52.472;13.380;2024-03-02T01:15:26;10.88;88.21
69009;SHT31;56065;52.472;13.380;2024-03-02T01:17:52;10.86;88.32
69009;SHT31;56065;52.472;13.380;2024-03-02T01:20:17;10.88;88.42
69009;SHT31;56065;52.472;13.380;2024-03-02T01:22:43;10.92;88.49
69009;SHT31;56065;52.472;13.380;2024-03-02T01:25:08;10.94;88.46
69009;SHT31;56065;52.472;13.380;2024-03-02T01:27:34;10.99;88.32
69009;SHT31;56065;52.472;13.380;2024-03-02T01:29:59;10.98;88.40
69009;SHT31;56065;52.472;13.380;2024-03-02T01:32:25;10.98;88.26
69009;SHT31;56065;52.472;13.380;2024-03-02T01:34:50;10.96;88.37
69009;SHT31;56065;52.472;13.380;2024-03-02T01:37:16;10.92;88.60
69009;SHT31;56065;52.472;13.380;2024-03-02T01:39:41;10.88;88.76
69009;SHT31;56065;52.472;13.380;2024-03-02T01:42:06;10.84;89.04
69009;SHT31;56065;52.472;13.380;2024-03-02T01:44:32;10.79;89.34
69009;SHT31;56065;52.472;13.380;2024-03-02T01:46:57;10.69;89.56
69009;SHT31;56065;52.472;13.380;2024-03-02T01:49:23;10.64;89.93
69009;SHT31;56065;52.472;13.380;2024-03-02T01:51:48;10.65;89.95
69009;SHT31;56065;52.472;13.380;2024-03-02T01:54:13;10.68;90.08
69009;SHT31;56065;52.472;13.380;2024-03-02T01:56:39;10.69;90.26
69009;SHT31;56065;52.472;13.380;2024-03-02T01:59:05;10.72;90.09
69009;SHT31;56065;52.472;13.380;2024-03-02T02:01:30;10.75;90.06
69009;SHT31;56065;52.472;13.380;2024-03-02T02:03:56;10.63;90.42
69009;SHT31;56065;52.472;13.380;2024-03-02T02:06:22;10.60;90.47
69009;SHT31;56065;52.472;13.380;2024-03-02T02:08:47;10.60;90.77
69009;SHT31;56065;52.472;13.380;2024-03-02T02:11:16;10.58;90.72
69009;SHT31;56065;52.472;13.380;2024-03-02T02:13:42;10.57;91.27
69009;SHT31;56065;52.472;13.380;2024-03-02T02:16:08;10.65;90.71
69009;SHT31;56065;52.472;13.380;2024-03-02T02:18:33;10.63;90.88
69009;SHT31;56065;52.472;13.380;2024-03-02T02:20:59;10.64;90.74
69009;SHT31;56065;52.472;13.380;2024-03-02T02:23:24;10.60;90.96
69009;SHT31;56065;52.472;13.380;2024-03-02T02:25:49;10.53;91.19
69009;SHT31;56065;52.472;13.380;2024-03-02T02:28:15;10.53;91.36
69009;SHT31;56065;52.472;13.380;2024-03-02T02:30:40;10.45;91.72
69009;SHT31;56065;52.472;13.380;2024-03-02T02:33:06;10.45;91.72
69009;SHT31;56065;52.472;13.380;2024-03-02T02:35:31;10.43;91.74
69009;SHT31;56065;52.472;13.380;2024-03-02T02:37:57;10.37;92.01
69009;SHT31;56065;52.472;13.380;2024-03-02T02:40:23;10.41;92.11
69009;SHT31;56065;52.472;13.380;2024-03-02T02:42:49;10.43;92.08
69009;SHT31;56065;52.472;13.380;2024-03-02T02:45:15;10.43;92.03
69009;SHT31;56065;52.472;13.380;2024-03-02T02:47:41;10.48;92.10
69009;SHT31;56065;52.472;13.380;2024-03-02T02:50:07;10.50;92.29
69009;SHT31;56065;52.472;13.380;2024-03-02T02:52:34;10.55;92.11
69009;SHT31;56065;52.472;13.380;2024-03-02T02:55:04;10.57;92.25
69009;SHT31;56065;52.472;13.380;2024-03-02T02:57:31;10.63;92.12
69009;SHT31;56065;52.472;13.380;2024-03-02T03:00:01;10.65;92.25
69009;SHT31;56065;52.472;13.380;2024-03-02T03:02:29;10.69;92.13
69009;SHT31;56065;52.472;13.380;2024-03-02T03:04:54;10.71;92.34
69009;SHT31;56065;52.472;13.380;2024-03-02T03:07:22;10.76;92.12
69009;SHT31;56065;52.472;13.380;2024-03-02T03:09:47;10.81;92.16
69009;SHT31;56065;52.472;13.380;2024-03-02T03:12:12;10.81;92.23
69009;SHT31;56065;52.472;13.380;2024-03-02T03:14:40;10.79;92.14
69009;SHT31;56065;52.472;13.380;2024-03-02T03:17:06;10.79;92.28
69009;SHT31;56065;52.472;13.380;2024-03-02T03:19:33;10.81;92.25
69009;SHT31;56065;52.472;13.380;2024-03-02T03:21:58;10.76;92.39
69009;SHT31;56065;52.472;13.380;2024-03-02T03:24:24;10.76;92.52
69009;SHT31;56065;52.472;13.380;2024-03-02T03:26:49;10.78;92.54
69009;SHT31;56065;52.472;13.380;2024-03-02T03:29:14;10.79;92.55
69009;SHT31;56065;52.472;13.380;2024-03-02T03:31:40;10.78;92.58
69009;SHT31;56065;52.472;13.380;2024-03-02T03:34:05;10.78;92.91
69009;SHT31;56065;52.472;13.380;2024-03-02T03:36:30;10.78;92.71
69009;SHT31;56065;52.472;13.380;2024-03-02T03:38:56;10.84;92.74
69009;SHT31;56065;52.472;13.380;2024-03-02T03:41:22;10.85;92.74
69009;SHT31;56065;52.472;13.380;2024-03-02T03:43:48;10.91;92.71
69009;SHT31;56065;52.472;13.380;2024-03-02T03:46:13;10.94;92.57
69009;SHT31;56065;52.472;13.380;2024-03-02T03:48:39;11.01;92.40
69009;SHT31;56065;52.472;13.380;2024-03-02T03:51:04;10.99;92.46
69009;SHT31;56065;52.472;13.380;2024-03-02T03:53:29;11.01;92.46
69009;SHT31;56065;52.472;13.380;2024-03-02T03:55:55;11.01;92.42
69009;SHT31;56065;52.472;13.380;2024-03-02T03:58:20;10.99;92.37
69009;SHT31;56065;52.472;13.380;2024-03-02T04:00:46;10.94;92.50
69009;SHT31;56065;52.472;13.380;2024-03-02T04:03:11;10.91;92.70
69009;SHT31;56065;52.472;13.380;2024-03-02T04:05:37;10.94;92.66
69009;SHT31;56065;52.472;13.380;2024-03-02T04:08:03;10.94;92.55
69009;SHT31;56065;52.472;13.380;2024-03-02T04:10:29;10.92;92.71
69009;SHT31;56065;52.472;13.380;2024-03-02T04:12:55;10.92;92.66
69009;SHT31;56065;52.472;13.380;2024-03-02T04:15:21;10.89;92.67
69009;SHT31;56065;52.472;13.380;2024-03-02T04:17:48;10.86;92.96
69009;SHT31;56065;52.472;13.380;2024-03-02T04:20:13;10.86;92.85
69009;SHT31;56065;52.472;13.380;2024-03-02T04:22:39;10.84;93.00
69009;SHT31;56065;52.472;13.380;2024-03-02T04:25:04;10.86;92.95
69009;SHT31;56065;52.472;13.380;2024-03-02T04:27:30;10.88;92.89
69009;SHT31;56065;52.472;13.380;2024-03-02T04:29:57;10.88;93.13
69009;SHT31;56065;52.472;13.380;2024-03-02T04:32:22;10.86;92.99
69009;SHT31;56065;52.472;13.380;2024-03-02T04:34:48;10.89;93.02
69009;SHT31;56065;52.472;13.380;2024-03-02T04:37:13;10.88;93.13
69009;SHT31;56065;52.472;13.380;2024-03-02T04:39:39;10.86;93.23
69009;SHT31;56065;52.472;13.380;2024-03-02T04:42:05;10.89;93.00
69009;SHT31;56065;52.472;13.380;2024-03-02T04:44:30;10.89;93.33
69009;SHT31;56065;52.472;13.380;2024-03-02T04:46:55;10.86;93.45
69009;SHT31;56065;52.472;13.380;2024-03-02T04:49:21;10.99;92.86
69009;SHT31;56065;52.472;13.380;2024-03-02T04:51:46;10.99;92.77
69009;SHT31;56065;52.472;13.380;2024-03-02T04:54:12;10.99;92.70
69009;SHT31;56065;52.472;13.380;2024-03-02T04:56:39;10.94;92.99
69009;SHT31;56065;52.472;13.380;2024-03-02T04:59:14;10.94;93.01
69009;SHT31;56065;52.472;13.380;2024-03-02T05:01:40;10.96;92.90
69009;SHT31;56065;52.472;13.380;2024-03-02T05:04:05;10.96;92.75
69009;SHT31;56065;52.472;13.380;2024-03-02T05:06:31;10.89;93.06
69009;SHT31;56065;52.472;13.380;2024-03-02T05:08:56;10.85;93.22
69009;SHT31;56065;52.472;13.380;2024-03-02T05:11:21;10.76;93.56
69009;SHT31;56065;52.472;13.380;2024-03-02T05:14:16;10.75;93.60
69009;SHT31;56065;52.472;13.380;2024-03-02T05:16:41;10.72;93.57
69009;SHT31;56065;52.472;13.380;2024-03-02T05:19:07;10.72;93.54
69009;SHT31;56065;52.472;13.380;2024-03-02T05:21:33;10.67;94.15
69009;SHT31;56065;52.472;13.380;2024-03-02T05:23:59;10.74;93.76
69009;SHT31;56065;52.472;13.380;2024-03-02T05:26:24;10.79;93.36
69009;SHT31;56065;52.472;13.380;2024-03-02T05:28:49;10.76;93.78
69009;SHT31;56065;52.472;13.380;2024-03-02T05:31:15;10.75;93.58
69009;SHT31;56065;52.472;13.380;2024-03-02T05:33:41;10.82;93.37
69009;SHT31;56065;52.472;13.380;2024-03-02T05:36:07;10.78;93.43
69009;SHT31;56065;52.472;13.380;2024-03-02T05:38:34;10.78;93.52
69009;SHT31;56065;52.472;13.380;2024-03-02T05:41:00;10.78;93.44
69009;SHT31;56065;52.472;13.380;2024-03-02T05:43:25;10.78;93.50
69009;SHT31;56065;52.472;13.380;2024-03-02T05:45:50;10.76;93.29
69009;SHT31;56065;52.472;13.380;2024-03-02T05:48:16;10.74;93.39
69009;SHT31;56065;52.472;13.380;2024-03-02T05:50:41;10.68;93.58
69009;SHT31;56065;52.472;13.380;2024-03-02T05:53:07;10.68;93.79
69009;SHT31;56065;52.472;13.380;2024-03-02T05:55:32;10.64;94.07
69009;SHT31;56065;52.472;13.380;2024-03-02T05:57:58;10.64;93.94
69009;SHT31;56065;52.472;13.380;2024-03-02T06:00:23;10.60;94.02
69009;SHT31;56065;52.472;13.380;2024-03-02T06:02:49;10.68;93.31
69009;SHT31;56065;52.472;13.380;2024-03-02T06:05:14;10.65;93.27
69009;SHT31;56065;52.472;13.380;2024-03-02T06:07:40;10.69;92.90
69009;SHT31;56065;52.472;13.380;2024-03-02T06:10:06;10.58;93.40
69009;SHT31;56065;52.472;13.380;2024-03-02T06:12:34;10.58;93.56
69009;SHT31;56065;52.472;13.380;2024-03-02T06:14:59;10.61;93.33
69009;SHT31;56065;52.472;13.380;2024-03-02T06:17:25;10.63;93.46
69009;SHT31;56065;52.472;13.380;2024-03-02T06:19:50;10.71;93.07
69009;SHT31;56065;52.472;13.380;2024-03-02T06:22:15;10.65;93.02
69009;SHT31;56065;52.472;13.380;2024-03-02T06:24:41;10.67;93.00
69009;SHT31;56065;52.472;13.380;2024-03-02T06:27:06;10.75;92.86
69009;SHT31;56065;52.472;13.380;2024-03-02T06:29:34;10.75;92.39
69009;SHT31;56065;52.472;13.380;2024-03-02T06:32:00;10.74;92.43
69009;SHT31;56065;52.472;13.380;2024-03-02T06:34:25;10.78;92.63
69009;SHT31;56065;52.472;13.380;2024-03-02T06:36:51;10.79;92.52
69009;SHT31;56065;52.472;13.380;2024-03-02T06:39:17;10.82;92.30
69009;SHT31;56065;52.472;13.380;2024-03-02T06:41:42;10.79;92.09
69009;SHT31;56065;52.472;13.380;2024-03-02T06:44:08;10.81;92.24
69009;SHT31;56065;52.472;13.380;2024-03-02T06:46:33;10.84;92.08
69009;SHT31;56065;52.472;13.380;2024-03-02T06:48:58;10.85;92.05
69009;SHT31;56065;52.472;13.380;2024-03-02T06:51:24;10.84;91.94
69009;SHT31;56065;52.472;13.380;2024-03-02T06:53:49;10.82;91.93
69009;SHT31;56065;52.472;13.380;2024-03-02T06:56:14;10.82;91.73
69009;SHT31;56065;52.472;13.380;2024-03-02T06:58:40;10.81;92.03
69009;SHT31;56065;52.472;13.380;2024-03-02T07:01:05;10.78;92.27
69009;SHT31;56065;52.472;13.380;2024-03-02T07:03:31;10.82;92.09
69009;SHT31;56065;52.472;13.380;2024-03-02T07:05:57;10.84;92.05
69009;SHT31;56065;52.472;13.380;2024-03-02T07:08:23;10.81;91.69
69009;SHT31;56065;52.472;13.380;2024-03-02T07:10:48;10.78;91.70
69009;SHT31;56065;52.472;13.380;2024-03-02T07:13:14;10.79;91.69
69009;SHT31;56065;52.472;13.380;2024-03-02T07:15:39;10.85;91.48
69009;SHT31;56065;52.472;13.380;2024-03-02T07:18:23;10.82;91.49
69009;SHT31;56065;52.472;13.380;2024-03-02T07:20:49;10.85;91.49
69009;SHT31;56065;52.472;13.380;2024-03-02T07:23:15;10.86;91.70
69009;SHT31;56065;52.472;13.380;2024-03-02T07:25:40;10.94;91.75
69009;SHT31;56065;52.472;13.380;2024-03-02T07:28:05;10.98;91.21
69009;SHT31;56065;52.472;13.380;2024-03-02T07:30:32;10.98;91.60
69009;SHT31;56065;52.472;13.380;2024-03-02T07:32:57;11.02;91.19
69009;SHT31;56065;52.472;13.380;2024-03-02T07:35:23;11.02;91.23
69009;SHT31;56065;52.472;13.380;2024-03-02T07:37:53;11.08;90.48
69009;SHT31;56065;52.472;13.380;2024-03-02T07:40:18;11.06;90.65
69009;SHT31;56065;52.472;13.380;2024-03-02T07:42:45;11.06;90.74
69009;SHT31;56065;52.472;13.380;2024-03-02T07:45:10;11.03;90.89
69009;SHT31;56065;52.472;13.380;2024-03-02T07:47:36;11.01;90.96
69009;SHT31;56065;52.472;13.380;2024-03-02T07:50:02;11.08;90.76
69009;SHT31;56065;52.472;13.380;2024-03-02T07:52:28;11.05;90.36
69009;SHT31;56065;52.472;13.380;2024-03-02T07:54:53;11.06;90.57
69009;SHT31;56065;52.472;13.380;2024-03-02T07:57:19;11.09;90.80
69009;SHT31;56065;52.472;13.380;2024-03-02T07:59:44;11.13;90.81
69009;SHT31;56065;52.472;13.380;2024-03-02T08:02:10;11.13;90.57
69009;SHT31;56065;52.472;13.380;2024-03-02T08:04:35;11.12;90.60
69009;SHT31;56065;52.472;13.380;2024-03-02T08:07:02;11.11;90.80
69009;SHT31;56065;52.472;13.380;2024-03-02T08:09:28;11.08;91.34
69009;SHT31;56065;52.472;13.380;2024-03-02T08:11:53;11.18;91.01
69009;SHT31;56065;52.472;13.380;2024-03-02T08:14:18;11.16;91.17
69009;SHT31;56065;52.472;13.380;2024-03-02T08:16:44;11.27;90.98
69009;SHT31;56065;52.472;13.380;2024-03-02T08:19:10;11.30;90.64
69009;SHT31;56065;52.472;13.380;2024-03-02T08:21:36;11.33;90.72
69009;SHT31;56065;52.472;13.380;2024-03-02T08:24:02;11.37;90.90
69009;SHT31;56065;52.472;13.380;2024-03-02T08:26:27;11.34;90.57
69009;SHT31;56065;52.472;13.380;2024-03-02T08:28:55;11.34;90.90
69009;SHT31;56065;52.472;13.380;2024-03-02T08:31:20;11.42;90.78
69009;SHT31;56065;52.472;13.380;2024-03-02T08:33:45;11.44;90.45
69009;SHT31;56065;52.472;13.380;2024-03-02T08:36:11;11.34;90.05
69009;SHT31;56065;52.472;13.380;2024-03-02T08:38:37;11.34;90.39
69009;SHT31;56065;52.472;13.380;2024-03-02T08:41:02;11.34;90.20
69009;SHT31;56065;52.472;13.380;2024-03-02T08:43:29;11.29;90.27
69009;SHT31;56065;52.472;13.380;2024-03-02T08:45:54;11.23;90.44
69009;SHT31;56065;52.472;13.380;2024-03-02T08:48:19;11.26;90.54
69009;SHT31;56065;52.472;13.380;2024-03-02T08:50:46;11.30;90.49
69009;SHT31;56065;52.472;13.380;2024-03-02T08:53:11;11.30;90.23
69009;SHT31;56065;52.472;13.380;2024-03-02T08:55:36;11.33;90.25
69009;SHT31;56065;52.472;13.380;2024-03-02T08:58:02;11.36;90.02
69009;SHT31;56065;52.472;13.380;2024-03-02T09:00:27;11.42;90.22
69009;SHT31;56065;52.472;13.380;2024-03-02T09:02:53;11.44;90.30
69009;SHT31;56065;52.472;13.380;2024-03-02T09:05:18;11.47;90.02
69009;SHT31;56065;52.472;13.380;2024-03-02T09:07:44;11.50;89.95
69009;SHT31;56065;52.472;13.380;2024-03-02T09:10:10;11.43;89.68
69009;SHT31;56065;52.472;13.380;2024-03-02T09:12:36;11.40;89.61
69009;SHT31;56065;52.472;13.380;2024-03-02T09:15:02;11.32;89.59
69009;SHT31;56065;52.472;13.380;2024-03-02T09:17:28;11.34;89.74
69009;SHT31;56065;52.472;13.380;2024-03-02T09:19:54;11.32;90.21
69009;SHT31;56065;52.472;13.380;2024-03-02T09:22:19;11.47;90.20
69009;SHT31;56065;52.472;13.380;2024-03-02T09:24:45;11.49;89.77
69009;SHT31;56065;52.472;13.380;2024-03-02T09:27:10;11.60;89.75
69009;SHT31;56065;52.472;13.380;2024-03-02T09:29:36;11.57;89.34
69009;SHT31;56065;52.472;13.380;2024-03-02T09:32:01;11.59;89.31
69009;SHT31;56065;52.472;13.380;2024-03-02T09:34:27;11.67;89.68
69009;SHT31;56065;52.472;13.380;2024-03-02T09:36:52;11.71;89.34
69009;SHT31;56065;52.472;13.380;2024-03-02T09:39:18;11.74;89.06
69009;SHT31;56065;52.472;13.380;2024-03-02T09:41:45;11.84;88.87
69009;SHT31;56065;52.472;13.380;2024-03-02T09:44:12;11.93;88.45
69009;SHT31;56065;52.472;13.380;2024-03-02T09:46:37;12.14;87.97
69009;SHT31;56065;52.472;13.380;2024-03-02T09:49:03;12.25;87.72
69009;SHT31;56065;52.472;13.380;2024-03-02T09:51:28;12.52;87.62
69009;SHT31;56065;52.472;13.380;2024-03-02T09:53:55;12.69;87.06
69009;SHT31;56065;52.472;13.380;2024-03-02T09:56:23;12.84;85.78
69009;SHT31;56065;52.472;13.380;2024-03-02T09:58:49;13.02;86.14
69009;SHT31;56065;52.472;13.380;2024-03-02T10:01:14;13.41;85.85
69009;SHT31;56065;52.472;13.380;2024-03-02T10:03:39;13.83;84.56
69009;SHT31;56065;52.472;13.380;2024-03-02T10:06:24;14.12;83.30
69009;SHT31;56065;52.472;13.380;2024-03-02T10:08:50;14.43;82.90
69009;SHT31;56065;52.472;13.380;2024-03-02T10:11:44;14.77;82.26
69009;SHT31;56065;52.472;13.380;2024-03-02T10:14:11;14.87;81.22
69009;SHT31;56065;52.472;13.380;2024-03-02T10:16:38;14.75;81.60
69009;SHT31;56065;52.472;13.380;2024-03-02T10:21:49;14.84;81.33
69009;SHT31;56065;52.472;13.380;2024-03-02T10:24:15;14.75;80.35
69009;SHT31;56065;52.472;13.380;2024-03-02T10:26:41;14.65;80.78
69009;SHT31;56065;52.472;13.380;2024-03-02T10:29:09;14.54;80.46
69009;SHT31;56065;52.472;13.380;2024-03-02T10:31:37;14.44;80.92
69009;SHT31;56065;52.472;13.380;2024-03-02T10:34:02;14.40;80.71
69009;SHT31;56065;52.472;13.380;2024-03-02T10:36:28;14.36;81.01
69009;SHT31;56065;52.472;13.380;2024-03-02T10:38:56;14.46;81.03
69009;SHT31;56065;52.472;13.380;2024-03-02T10:41:24;14.53;81.29
69009;SHT31;56065;52.472;13.380;2024-03-02T10:43:52;14.53;80.90
69009;SHT31;56065;52.472;13.380;2024-03-02T10:46:30;14.51;81.06
69009;SHT31;56065;52.472;13.380;2024-03-02T10:48:57;14.51;80.51
69009;SHT31;56065;52.472;13.380;2024-03-02T10:51:24;14.41;79.96
69009;SHT31;56065;52.472;13.380;2024-03-02T10:53:51;14.50;80.31
69009;SHT31;56065;52.472;13.380;2024-03-02T10:56:22;14.61;80.15
69009;SHT31;56065;52.472;13.380;2024-03-02T10:58:58;14.70;79.46
69009;SHT31;56065;52.472;13.380;2024-03-02T11:01:26;14.99;79.66
69009;SHT31;56065;52.472;13.380;2024-03-02T11:03:53;15.24;78.97
69009;SHT31;56065;52.472;13.380;2024-03-02T11:06:20;15.42;78.53
69009;SHT31;56065;52.472;13.380;2024-03-02T11:08:47;15.60;77.75
69009;SHT31;56065;52.472;13.380;2024-03-02T11:11:15;15.80;77.99
69009;SHT31;56065;52.472;13.380;2024-03-02T11:13:49;16.01;77.61
69009;SHT31;56065;52.472;13.380;2024-03-02T11:16:35;16.13;76.60
69009;SHT31;56065;52.472;13.380;2024-03-02T11:19:05;16.29;76.87
69009;SHT31;56065;52.472;13.380;2024-03-02T11:21:33;16.48;76.02
69009;SHT31;56065;52.472;13.380;2024-03-02T11:23:59;16.58;75.49
69009;SHT31;56065;52.472;13.380;2024-03-02T11:26:24;16.79;76.17
69009;SHT31;56065;52.472;13.380;2024-03-02T11:28:50;17.34;75.76
69009;SHT31;56065;52.472;13.380;2024-03-02T11:31:15;17.45;73.40
69009;SHT31;56065;52.472;13.380;2024-03-02T11:33:41;17.58;73.22
69009;SHT31;56065;52.472;13.380;2024-03-02T11:36:07;17.38;73.43
69009;SHT31;56065;52.472;13.380;2024-03-02T11:38:33;17.20;73.32
69009;SHT31;56065;52.472;13.380;2024-03-02T11:41:01;17.15;73.88
69009;SHT31;56065;52.472;13.380;2024-03-02T11:43:30;17.06;73.57
69009;SHT31;56065;52.472;13.380;2024-03-02T11:46:00;17.00;73.99
69009;SHT31;56065;52.472;13.380;2024-03-02T11:48:26;17.22;74.25
69009;SHT31;56065;52.472;13.380;2024-03-02T11:50:52;17.12;73.64
69009;SHT31;56065;52.472;13.380;2024-03-02T11:53:19;17.20;73.37
69009;SHT31;56065;52.472;13.380;2024-03-02T11:55:45;17.30;73.92
69009;SHT31;56065;52.472;13.380;2024-03-02T11:58:15;17.31;72.96
69009;SHT31;56065;52.472;13.380;2024-03-02T12:00:46;17.47;73.00
69009;SHT31;56065;52.472;13.380;2024-03-02T12:03:13;17.54;72.53
69009;SHT31;56065;52.472;13.380;2024-03-02T12:05:39;17.54;73.22
69009;SHT31;56065;52.472;13.380;2024-03-02T12:08:06;17.40;72.21
69009;SHT31;56065;52.472;13.380;2024-03-02T12:10:31;17.24;73.20
69009;SHT31;56065;52.472;13.380;2024-03-02T12:15:28;17.10;72.99
69009;SHT31;56065;52.472;13.380;2024-03-02T12:17:55;17.17;73.82
69009;SHT31;56065;52.472;13.380;2024-03-02T12:20:21;17.20;73.34
69009;SHT31;56065;52.472;13.380;2024-03-02T12:22:46;17.51;73.53
69009;SHT31;56065;52.472;13.380;2024-03-02T12:25:12;17.70;72.70
69009;SHT31;56065;52.472;13.380;2024-03-02T12:27:39;17.77;71.91
69009;SHT31;56065;52.472;13.380;2024-03-02T12:30:05;17.91;71.03
69009;SHT31;56065;52.472;13.380;2024-03-02T12:32:33;17.74;71.99
69009;SHT31;56065;52.472;13.380;2024-03-02T12:34:59;17.55;71.53
69009;SHT31;56065;52.472;13.380;2024-03-02T12:37:25;17.37;71.51
69009;SHT31;56065;52.472;13.380;2024-03-02T12:39:52;17.48;71.91
69009;SHT31;56065;52.472;13.380;2024-03-02T12:42:18;17.54;71.92
69009;SHT31;56065;52.472;13.380;2024-03-02T12:44:43;17.82;71.80
69009;SHT31;56065;52.472;13.380;2024-03-02T12:47:08;17.70;71.09
69009;SHT31;56065;52.472;13.380;2024-03-02T12:49:34;17.71;71.73
69009;SHT31;56065;52.472;13.380;2024-03-02T12:52:00;17.58;71.44
69009;SHT31;56065;52.472;13.380;2024-03-02T12:54:25;17.53;71.98
69009;SHT31;56065;52.472;13.380;2024-03-02T12:56:52;17.81;71.84
69009;SHT31;56065;52.472;13.380;2024-03-02T12:59:20;17.94;71.40
69009;SHT31;56065;52.472;13.380;2024-03-02T13:01:54;18.52;71.62
69009;SHT31;56065;52.472;13.380;2024-03-02T13:04:24;19.49;70.35
69009;SHT31;56065;52.472;13.380;2024-03-02T13:06:50;19.96;68.26
69009;SHT31;56065;52.472;13.380;2024-03-02T13:09:16;20.89;67.41
69009;SHT31;56065;52.472;13.380;2024-03-02T13:11:42;21.37;64.96
69009;SHT31;56065;52.472;13.380;2024-03-02T13:14:07;21.57;65.27
69009;SHT31;56065;52.472;13.380;2024-03-02T13:16:38;21.35;64.34
69009;SHT31;56065;52.472;13.380;2024-03-02T13:19:07;21.39;65.48
69009;SHT31;56065;52.472;13.380;2024-03-02T13:21:33;21.30;65.63
69009;SHT31;56065;52.472;13.380;2024-03-02T13:23:58;21.43;64.37
69009;SHT31;56065;52.472;13.380;2024-03-02T13:26:24;21.36;63.15
69009;SHT31;56065;52.472;13.380;2024-03-02T13:28:49;21.30;63.68
69009;SHT31;56065;52.472;13.380;2024-03-02T13:31:15;20.91;63.89
69009;SHT31;56065;52.472;13.380;2024-03-02T13:33:40;20.81;63.76
69009;SHT31;56065;52.472;13.380;2024-03-02T13:36:06;20.63;63.74
69009;SHT31;56065;52.472;13.380;2024-03-02T13:38:31;20.13;64.71
69009;SHT31;56065;52.472;13.380;2024-03-02T13:40:56;19.90;65.11
69009;SHT31;56065;52.472;13.380;2024-03-02T13:43:22;19.96;65.36
69009;SHT31;56065;52.472;13.380;2024-03-02T13:45:49;20.03;65.59
69009;SHT31;56065;52.472;13.380;2024-03-02T13:48:14;19.87;65.01
69009;SHT31;56065;52.472;13.380;2024-03-02T13:50:40;19.98;65.26
69009;SHT31;56065;52.472;13.380;2024-03-02T13:53:06;20.07;64.83
69009;SHT31;56065;52.472;13.380;2024-03-02T13:55:32;19.85;64.80
69009;SHT31;56065;52.472;13.380;2024-03-02T13:57:58;19.79;65.08
69009;SHT31;56065;52.472;13.380;2024-03-02T14:00:23;19.80;64.46
69009;SHT31;56065;52.472;13.380;2024-03-02T14:02:49;19.67;65.25
69009;SHT31;56065;52.472;13.380;2024-03-02T14:05:15;19.58;65.10
69009;SHT31;56065;52.472;13.380;2024-03-02T14:07:41;19.90;65.74
69009;SHT31;56065;52.472;13.380;2024-03-02T14:10:07;19.98;65.04
69009;SHT31;56065;52.472;13.380;2024-03-02T14:12:32;20.00;65.04
69009;SHT31;56065;52.472;13.380;2024-03-02T14:14:58;19.86;64.97
69009;SHT31;56065;52.472;13.380;2024-03-02T14:17:24;19.56;65.49
69009;SHT31;56065;52.472;13.380;2024-03-02T14:19:50;19.41;65.03
69009;SHT31;56065;52.472;13.380;2024-03-02T14:22:16;19.28;66.04
69009;SHT31;56065;52.472;13.380;2024-03-02T14:24:43;19.24;65.72
69009;SHT31;56065;52.472;13.380;2024-03-02T14:27:08;19.04;66.25
69009;SHT31;56065;52.472;13.380;2024-03-02T14:29:34;18.95;66.06
69009;SHT31;56065;52.472;13.380;2024-03-02T14:32:03;18.83;66.36
69009;SHT31;56065;52.472;13.380;2024-03-02T14:34:28;18.61;67.03
69009;SHT31;56065;52.472;13.380;2024-03-02T14:36:53;18.50;67.05
69009;SHT31;56065;52.472;13.380;2024-03-02T14:39:19;18.25;67.44
69009;SHT31;56065;52.472;13.380;2024-03-02T14:41:45;17.98;68.08
69009;SHT31;56065;52.472;13.380;2024-03-02T14:44:10;17.92;68.21
69009;SHT31;56065;52.472;13.380;2024-03-02T14:46:35;17.67;68.64
69009;SHT31;56065;52.472;13.380;2024-03-02T14:49:01;17.51;68.77
69009;SHT31;56065;52.472;13.380;2024-03-02T14:51:27;17.30;69.56
69009;SHT31;56065;52.472;13.380;2024-03-02T14:53:52;17.15;69.89
69009;SHT31;56065;52.472;13.380;2024-03-02T14:56:17;17.06;70.41
69009;SHT31;56065;52.472;13.380;2024-03-02T14:58:43;16.90;70.90
69009;SHT31;56065;52.472;13.380;2024-03-02T15:01:08;16.86;70.92
69009;SHT31;56065;52.472;13.380;2024-03-02T15:03:34;16.86;70.98
69009;SHT31;56065;52.472;13.380;2024-03-02T15:06:01;16.69;70.86
69009;SHT31;56065;52.472;13.380;2024-03-02T15:08:26;16.62;71.30
69009;SHT31;56065;52.472;13.380;2024-03-02T15:10:52;16.49;71.44
69009;SHT31;56065;52.472;13.380;2024-03-02T15:13:20;16.45;71.71
69009;SHT31;56065;52.472;13.380;2024-03-02T15:15:45;16.34;71.66
69009;SHT31;56065;52.472;13.380;2024-03-02T15:18:11;16.28;71.94